createdAt,value
2022-11-22T00:00:36.863Z,23.80
2022-11-22T00:06:50.929Z,26.50
2022-11-22T00:09:52.500Z,27.70
2022-11-22T00:12:54.167Z,27.90
2022-11-22T00:16:00.083Z,21.30
2022-11-22T00:19:01.660Z,27.50
2022-11-22T00:22:03.206Z,26.50
2022-11-22T00:25:05.801Z,28.80
2022-11-22T00:28:07.429Z,29.10
2022-11-22T00:31:08.979Z,22.00
2022-11-22T00:34:10.531Z,30.20
2022-11-22T00:37:12.135Z,32.70
2022-11-22T00:40:13.986Z,31.00
2022-11-22T00:43:15.559Z,32.40
2022-11-22T00:46:17.163Z,32.80
2022-11-22T00:49:18.713Z,35.10
2022-11-22T00:52:20.322Z,34.90
2022-11-22T00:55:21.938Z,36.50
2022-11-22T00:58:23.520Z,35.60
2022-11-22T01:01:25.105Z,39.00
2022-11-22T01:04:26.740Z,30.50
2022-11-22T01:07:28.319Z,38.90
2022-11-22T01:10:29.949Z,40.90
2022-11-22T01:13:31.621Z,30.10
2022-11-22T01:16:33.139Z,30.90
2022-11-22T01:19:34.694Z,40.30
2022-11-22T01:22:36.184Z,42.50
2022-11-22T01:25:37.782Z,43.40
2022-11-22T01:28:39.301Z,43.60
2022-11-22T01:31:40.828Z,43.00
2022-11-22T01:34:42.355Z,41.60
2022-11-22T01:37:43.856Z,42.20
2022-11-22T01:40:45.405Z,45.10
2022-11-22T01:43:46.974Z,44.90
2022-11-22T01:46:52.969Z,41.20
2022-11-22T01:49:59.794Z,43.00
2022-11-22T01:53:10.072Z,43.20
2022-11-22T01:56:15.106Z,42.40
2022-11-22T01:59:21.707Z,41.90
2022-11-22T02:02:24.047Z,40.90
2022-11-22T02:05:30.161Z,43.00
2022-11-22T02:09:03.852Z,41.10
2022-11-22T02:12:07.954Z,37.90
2022-11-22T02:15:11.081Z,37.80
2022-11-22T02:18:13.386Z,38.30
2022-11-22T02:24:21.919Z,37.40
2022-11-22T02:27:23.699Z,39.20
2022-11-22T02:30:25.269Z,37.20
2022-11-22T02:33:26.980Z,35.90
2022-11-22T02:36:32.500Z,34.30
2022-11-22T02:39:34.089Z,35.30
2022-11-22T02:42:35.846Z,36.60
2022-11-22T02:45:37.411Z,37.60
2022-11-22T02:48:43.275Z,39.60
2022-11-22T02:51:45.764Z,39.80
2022-11-22T02:54:47.352Z,39.00
2022-11-22T02:57:48.887Z,39.30
2022-11-22T03:00:50.574Z,40.80
2022-11-22T03:03:52.623Z,36.50
2022-11-22T03:06:55.904Z,36.40
2022-11-22T03:09:57.468Z,37.40
2022-11-22T03:12:59.200Z,38.10
2022-11-22T03:16:00.798Z,39.40
2022-11-22T03:19:02.448Z,36.90
2022-11-22T03:22:03.990Z,36.10
2022-11-22T03:25:06.007Z,36.00
2022-11-22T03:28:07.552Z,32.50
2022-11-22T03:31:09.132Z,26.00
2022-11-22T03:34:11.798Z,30.80
2022-11-22T03:37:13.369Z,29.60
2022-11-22T03:40:15.387Z,30.70
2022-11-22T03:43:17.205Z,33.20
2022-11-22T03:46:18.946Z,30.20
2022-11-22T03:49:20.493Z,29.10
2022-11-22T03:52:21.970Z,28.50
2022-11-22T03:55:23.500Z,27.30
2022-11-22T03:58:25.143Z,28.80
2022-11-22T04:01:26.736Z,33.10
2022-11-22T04:04:28.254Z,33.40
2022-11-22T04:07:29.822Z,26.70
2022-11-22T04:10:31.368Z,33.70
2022-11-22T04:13:51.261Z,36.00
2022-11-22T04:16:52.761Z,33.00
2022-11-22T04:20:14.558Z,33.90
2022-11-22T04:23:18.539Z,31.60
2022-11-22T04:26:20.090Z,32.20
2022-11-22T04:29:22.372Z,29.60
2022-11-22T04:32:42.330Z,28.10
2022-11-22T04:35:44.446Z,27.30
2022-11-22T04:38:45.910Z,29.90
2022-11-22T04:42:07.472Z,31.00
2022-11-22T04:45:09.441Z,25.90
2022-11-22T04:48:11.871Z,25.30
2022-11-22T04:51:33.254Z,24.00
2022-11-22T04:54:34.805Z,24.30
2022-11-22T04:57:36.297Z,23.70
2022-11-22T05:00:38.809Z,23.50
2022-11-22T05:03:40.512Z,23.40
2022-11-22T05:06:42.089Z,23.60
2022-11-22T05:09:43.862Z,18.60
2022-11-22T05:12:48.345Z,17.10
2022-11-22T05:15:52.728Z,24.20
2022-11-22T05:19:00.862Z,24.90
2022-11-22T05:22:08.321Z,27.70
2022-11-22T05:25:10.067Z,27.90
2022-11-22T05:28:11.595Z,23.00
2022-11-22T05:31:16.219Z,29.90
2022-11-22T05:34:17.750Z,28.20
2022-11-22T05:37:19.237Z,29.00
2022-11-22T05:40:20.709Z,28.80
2022-11-22T05:43:22.381Z,26.80
2022-11-22T05:46:26.850Z,20.20
2022-11-22T05:49:28.828Z,26.10
2022-11-22T05:55:32.260Z,24.70
2022-11-22T05:58:34.531Z,24.70
2022-11-22T06:01:36.087Z,24.20
2022-11-22T06:04:37.587Z,23.50
2022-11-22T06:07:39.189Z,24.60
2022-11-22T06:10:40.657Z,25.70
2022-11-22T06:13:43.777Z,22.90
2022-11-22T06:16:45.391Z,22.50
2022-11-22T06:19:46.956Z,22.60
2022-11-22T06:22:48.469Z,15.70
2022-11-22T06:25:57.332Z,22.90
2022-11-22T06:28:58.878Z,21.20
2022-11-22T06:32:03.556Z,23.90
2022-11-22T06:35:06.277Z,21.70
2022-11-22T06:38:08.288Z,21.00
2022-11-22T06:41:15.117Z,23.20
2022-11-22T06:44:16.739Z,21.90
2022-11-22T06:47:18.486Z,23.00
2022-11-22T06:50:21.909Z,17.00
2022-11-22T06:53:45.638Z,22.70
2022-11-22T06:56:45.173Z,22.40
2022-11-22T06:59:49.658Z,23.80
2022-11-22T07:02:51.169Z,23.60
2022-11-22T07:05:53.072Z,24.10
2022-11-22T07:08:54.756Z,23.50
2022-11-22T07:11:56.320Z,23.10
2022-11-22T07:14:57.818Z,22.10
2022-11-22T07:17:59.368Z,22.10
2022-11-22T07:21:01.901Z,23.10
2022-11-22T07:24:05.014Z,22.60
2022-11-22T07:27:06.528Z,22.90
2022-11-22T07:30:08.930Z,23.40
2022-11-22T07:33:10.464Z,22.60
2022-11-22T07:36:14.795Z,23.60
2022-11-22T07:39:16.328Z,23.90
2022-11-22T07:42:21.159Z,20.60
2022-11-22T07:45:25.318Z,26.70
2022-11-22T07:48:27.064Z,26.50
2022-11-22T07:51:29.343Z,27.20
2022-11-22T07:57:33.093Z,28.70
2022-11-22T08:03:37.128Z,28.40
2022-11-22T08:09:40.267Z,30.40
2022-11-22T08:12:42.709Z,23.50
2022-11-22T08:15:45.080Z,29.60
2022-11-22T08:18:48.296Z,29.40
2022-11-22T08:21:55.330Z,28.10
2022-11-22T08:24:59.767Z,26.40
2022-11-22T08:28:01.613Z,26.40
2022-11-22T08:31:15.568Z,27.60
2022-11-22T08:34:17.218Z,26.50
2022-11-22T08:37:18.807Z,30.10
2022-11-22T08:40:20.646Z,28.80
2022-11-22T08:43:22.671Z,28.40
2022-11-22T08:46:24.299Z,28.80
2022-11-22T08:49:25.995Z,28.60
2022-11-22T08:52:27.617Z,25.50
2022-11-22T08:55:29.225Z,26.70
2022-11-22T08:58:33.554Z,25.50
2022-11-22T09:01:35.246Z,25.20
2022-11-22T09:04:36.951Z,24.40
2022-11-22T09:11:02.105Z,16.60
2022-11-22T09:14:03.667Z,23.80
2022-11-22T09:17:05.716Z,23.30
2022-11-22T09:20:08.337Z,23.70
2022-11-22T09:23:10.052Z,24.10
2022-11-22T09:26:26.250Z,22.60
2022-11-22T09:29:28.278Z,24.30
2022-11-22T09:32:33.628Z,23.60
2022-11-22T09:35:35.650Z,23.80
2022-11-22T09:38:37.791Z,23.20
2022-11-22T09:41:51.240Z,23.00
2022-11-22T09:45:17.841Z,22.00
2022-11-22T09:48:49.667Z,21.10
2022-11-22T09:52:05.561Z,19.40
2022-11-22T09:55:26.408Z,19.70
2022-11-22T09:58:51.030Z,19.60
2022-11-22T10:02:18.708Z,18.10
2022-11-22T10:05:25.542Z,16.40
2022-11-22T10:08:51.282Z,15.90
2022-11-22T10:12:10.455Z,17.00
2022-11-22T10:15:21.133Z,17.70
2022-11-22T10:18:33.688Z,17.60
2022-11-22T10:21:35.477Z,17.40
2022-11-22T10:24:37.257Z,16.80
2022-11-22T10:27:41.727Z,16.20
2022-11-22T10:30:54.559Z,17.40
2022-11-22T10:34:09.133Z,16.30
2022-11-22T10:37:24.668Z,15.50
2022-11-22T10:40:41.561Z,14.70
2022-11-22T10:44:20.781Z,13.50
2022-11-22T10:47:47.395Z,13.60
2022-11-22T10:51:11.484Z,12.10
2022-11-22T10:54:23.388Z,10.00
2022-11-22T10:57:31.216Z,9.90
2022-11-22T11:00:38.777Z,10.00
2022-11-22T11:03:43.717Z,9.60
2022-11-22T11:10:32.416Z,10.00
2022-11-22T11:13:42.769Z,8.10
2022-11-22T11:16:44.699Z,7.90
2022-11-22T11:19:53.339Z,5.80
2022-11-22T11:26:30.253Z,5.50
2022-11-22T11:29:37.745Z,5.30
2022-11-22T11:33:00.539Z,4.70
2022-11-22T11:36:04.815Z,4.60
2022-11-22T11:39:20.420Z,5.10
2022-11-22T11:42:25.595Z,4.90
2022-11-22T11:45:28.532Z,5.80
2022-11-22T11:48:40.532Z,5.60
2022-11-22T11:51:43.387Z,6.10
2022-11-22T11:54:47.659Z,6.30
2022-11-22T11:57:51.980Z,7.10
2022-11-22T12:00:53.698Z,6.50
2022-11-22T12:03:59.691Z,7.00
2022-11-22T12:07:16.252Z,6.40
2022-11-22T12:10:30.496Z,7.20
2022-11-22T12:14:12.459Z,7.10
2022-11-22T12:17:11.925Z,6.60
2022-11-22T12:20:41.429Z,5.80
2022-11-22T12:23:51.167Z,6.70
2022-11-22T12:26:55.912Z,7.10
2022-11-22T12:29:58.331Z,6.90
2022-11-22T12:33:06.161Z,6.40
2022-11-22T12:36:18.421Z,6.60
2022-11-22T12:42:33.543Z,5.90
2022-11-22T12:45:40.033Z,6.60
2022-11-22T12:48:49.286Z,6.00
2022-11-22T12:52:07.927Z,7.40
2022-11-22T12:55:23.466Z,7.10
2022-11-22T12:58:40.459Z,8.10
2022-11-22T13:01:42.038Z,8.40
2022-11-22T13:04:52.851Z,9.70
2022-11-22T13:08:47.478Z,11.70
2022-11-22T13:12:01.886Z,10.80
2022-11-22T13:15:04.065Z,13.60
2022-11-22T13:18:10.364Z,12.20
2022-11-22T13:21:42.256Z,11.00
2022-11-22T13:24:59.170Z,11.00
2022-11-22T13:28:05.274Z,12.00
2022-11-22T13:31:09.460Z,13.10
2022-11-22T13:34:25.856Z,13.10
2022-11-22T13:37:33.172Z,15.30
2022-11-22T13:40:41.340Z,15.80
2022-11-22T13:43:55.628Z,18.80
2022-11-22T13:47:24.478Z,19.20
2022-11-22T13:50:41.330Z,19.00
2022-11-22T13:53:45.604Z,19.30
2022-11-22T13:56:58.859Z,17.50
2022-11-22T14:00:15.962Z,18.20
2022-11-22T14:03:25.603Z,18.10
2022-11-22T14:06:30.111Z,18.40
2022-11-22T14:09:43.502Z,19.20
2022-11-22T14:12:59.331Z,18.80
2022-11-22T14:16:19.868Z,19.90
2022-11-22T14:19:52.460Z,19.90
2022-11-22T14:23:03.112Z,19.50
2022-11-22T14:26:26.030Z,21.10
2022-11-22T14:29:55.197Z,18.00
2022-11-22T14:33:15.983Z,15.80
2022-11-22T14:36:21.215Z,14.60
2022-11-22T14:39:44.518Z,17.80
2022-11-22T14:42:51.979Z,15.40
2022-11-22T14:46:00.035Z,15.50
2022-11-22T14:49:28.379Z,15.80
2022-11-22T14:52:32.419Z,14.50
2022-11-22T14:55:34.979Z,14.10
2022-11-22T14:58:41.637Z,14.30
2022-11-22T15:02:20.740Z,13.30
2022-11-22T15:09:17.239Z,11.20
2022-11-22T15:09:53.405Z,12.20
2022-11-22T15:13:01.287Z,13.70
2022-11-22T15:58:00.318Z,19.50
2022-11-22T16:01:19.203Z,18.80
2022-11-22T16:04:28.698Z,19.00
2022-11-22T16:07:38.717Z,22.10
2022-11-22T16:10:42.210Z,20.90
2022-11-22T16:13:43.923Z,20.70
2022-11-22T16:16:45.536Z,20.80
2022-11-22T16:19:47.460Z,22.90
2022-11-22T16:23:14.060Z,23.60
2022-11-22T16:26:25.175Z,23.10
2022-11-22T16:29:33.208Z,23.40
2022-11-22T16:32:34.999Z,22.60
2022-11-22T16:35:36.977Z,21.70
2022-11-22T16:38:39.275Z,23.40
2022-11-22T16:41:41.136Z,23.20
2022-11-22T16:44:42.763Z,24.40
2022-11-22T16:47:44.766Z,24.30
2022-11-22T16:51:12.495Z,26.80
2022-11-22T16:54:16.448Z,24.30
2022-11-22T16:57:18.363Z,24.80
2022-11-22T17:00:20.177Z,23.70
2022-11-22T17:03:29.072Z,22.30
2022-11-22T17:06:31.610Z,21.40
2022-11-22T17:09:33.935Z,21.00
2022-11-22T17:12:35.845Z,21.00
2022-11-22T17:15:39.302Z,22.40
2022-11-22T17:18:40.947Z,23.10
2022-11-22T17:21:43.533Z,23.20
2022-11-22T17:24:45.154Z,23.80
2022-11-22T17:27:50.298Z,23.40
2022-11-22T17:31:00.771Z,24.60
2022-11-22T17:34:02.838Z,23.00
2022-11-22T17:37:10.248Z,23.90
2022-11-22T17:40:12.854Z,24.70
2022-11-22T17:43:14.453Z,24.80
2022-11-22T17:46:16.464Z,25.00
2022-11-22T17:49:18.036Z,26.00
2022-11-22T17:52:19.638Z,25.10
2022-11-22T17:55:21.183Z,27.10
2022-11-22T17:58:22.728Z,27.00
2022-11-22T18:01:24.623Z,28.50
2022-11-22T18:04:26.393Z,29.50
2022-11-22T18:07:28.922Z,30.70
2022-11-22T18:10:38.179Z,30.80
2022-11-22T18:13:40.334Z,28.50
2022-11-22T18:16:59.674Z,29.10
2022-11-22T18:20:01.723Z,30.60
2022-11-22T18:26:31.866Z,32.50
2022-11-22T18:29:45.092Z,33.60
2022-11-22T18:32:46.910Z,31.20
2022-11-22T18:36:01.064Z,28.70
2022-11-22T18:39:03.173Z,27.60
2022-11-22T18:42:07.950Z,23.80
2022-11-22T18:45:13.944Z,22.60
2022-11-22T18:51:29.568Z,25.90
2022-11-22T18:54:31.630Z,23.80
2022-11-22T19:00:35.739Z,22.40
2022-11-22T19:03:37.827Z,15.50
2022-11-22T19:06:40.228Z,23.80
2022-11-22T19:12:43.829Z,24.50
2022-11-22T19:15:46.081Z,25.40
2022-11-22T19:21:49.465Z,25.00
2022-11-22T19:24:51.411Z,25.80
2022-11-22T19:31:09.733Z,26.20
2022-11-22T19:34:12.190Z,31.60
2022-11-22T19:37:13.815Z,33.20
2022-11-22T19:40:15.412Z,31.60
2022-11-22T19:43:20.325Z,26.30
2022-11-22T19:46:22.731Z,24.10
2022-11-22T19:49:24.824Z,23.20
2022-11-22T19:52:26.359Z,22.70
2022-11-22T19:55:28.664Z,22.20
2022-11-22T19:58:31.048Z,21.50
2022-11-22T20:04:35.459Z,19.30
2022-11-22T20:07:37.135Z,20.50
2022-11-22T20:10:39.383Z,21.70
2022-11-22T20:16:44.388Z,20.80
2022-11-22T20:19:45.977Z,22.90
2022-11-22T20:22:47.535Z,22.80
2022-11-22T20:25:49.107Z,22.20
2022-11-22T20:31:58.356Z,21.70
2022-11-22T20:34:59.937Z,22.60
2022-11-22T20:38:01.494Z,23.80
2022-11-22T20:41:06.975Z,23.30
2022-11-22T20:44:13.140Z,25.40
2022-11-22T20:47:14.673Z,22.00
2022-11-22T20:50:16.716Z,22.70
2022-11-22T20:53:18.356Z,24.60
2022-11-22T20:56:20.308Z,23.40
2022-11-22T20:59:21.969Z,22.50
2022-11-22T21:02:23.690Z,23.00
2022-11-22T21:05:25.377Z,22.40
2022-11-22T21:08:27.109Z,22.70
2022-11-22T21:11:30.276Z,22.90
2022-11-22T21:14:31.982Z,22.30
2022-11-22T21:17:46.073Z,23.30
2022-11-22T21:21:21.826Z,23.30
2022-11-22T21:24:23.363Z,23.10
2022-11-22T21:27:24.965Z,24.50
2022-11-22T21:30:26.604Z,25.00
2022-11-22T21:33:33.223Z,22.70
2022-11-22T21:36:34.852Z,23.70
2022-11-22T21:39:36.730Z,23.80
2022-11-22T21:42:40.011Z,25.30
2022-11-22T21:45:41.703Z,23.10
2022-11-22T21:48:43.320Z,25.70
2022-11-22T21:51:45.247Z,24.40
2022-11-22T21:54:46.930Z,24.30
2022-11-22T21:57:48.639Z,26.60
2022-11-22T22:00:52.845Z,26.10
2022-11-22T22:03:54.753Z,25.00
2022-11-22T22:06:56.349Z,26.20
2022-11-22T22:09:57.916Z,25.80
2022-11-22T22:12:59.539Z,25.30
2022-11-22T22:16:05.816Z,25.90
2022-11-22T22:19:09.591Z,25.40
2022-11-22T22:22:11.284Z,26.70
2022-11-22T22:25:12.846Z,27.70
2022-11-22T22:28:14.351Z,28.60
2022-11-22T22:31:21.951Z,28.50
2022-11-22T22:34:24.013Z,27.00
2022-11-22T22:37:25.548Z,26.70
2022-11-22T22:40:27.176Z,27.00
2022-11-22T22:43:34.960Z,21.60
2022-11-22T22:46:36.679Z,26.50
2022-11-22T22:49:38.319Z,26.20
2022-11-22T22:52:39.880Z,25.90
2022-11-22T22:55:41.456Z,26.10
2022-11-22T22:58:43.730Z,27.60
2022-11-22T23:04:46.764Z,26.20
2022-11-22T23:07:48.449Z,27.70
2022-11-22T23:10:50.056Z,27.30
2022-11-22T23:13:51.730Z,26.20
2022-11-22T23:16:57.659Z,28.80
2022-11-22T23:19:59.863Z,24.50
2022-11-22T23:23:01.445Z,27.50
2022-11-22T23:26:05.707Z,28.20
2022-11-22T23:29:07.476Z,26.00
2022-11-22T23:32:09.051Z,18.60
2022-11-22T23:35:10.616Z,22.40
2022-11-22T23:38:12.231Z,23.00
2022-11-22T23:41:16.377Z,20.80
2022-11-22T23:44:17.941Z,19.30
2022-11-22T23:47:19.447Z,15.80
2022-11-22T23:50:21.074Z,20.30
2022-11-22T23:53:23.267Z,20.60
2022-11-22T23:56:26.057Z,20.20
2022-11-22T23:59:27.622Z,21.50
